createdAt,value
2017-11-14T00:00:05.635Z,21
2017-11-14T00:02:07.409Z,21
2017-11-14T00:04:05.125Z,21
2017-11-14T00:06:05.113Z,21
2017-11-14T00:08:07.941Z,21
2017-11-14T00:10:10.275Z,21
2017-11-14T00:12:05.615Z,21
2017-11-14T00:14:05.334Z,21
2017-11-14T00:16:07.677Z,21
2017-11-14T00:18:09.765Z,21
2017-11-14T00:20:05.485Z,21
2017-11-14T00:22:05.226Z,21
2017-11-14T00:24:05.081Z,21.1
2017-11-14T00:26:04.844Z,21
2017-11-14T00:28:05.632Z,21
2017-11-14T00:30:05.509Z,21
2017-11-14T00:32:07.718Z,21
2017-11-14T00:34:05.406Z,21
2017-11-14T00:36:07.646Z,21
2017-11-14T00:38:05.391Z,21
2017-11-14T00:40:04.662Z,21
2017-11-14T00:42:05.368Z,21
2017-11-14T00:44:05.113Z,21
2017-11-14T00:46:09.925Z,21
2017-11-14T00:48:04.700Z,20.9
2017-11-14T00:50:04.926Z,21
2017-11-14T00:52:05.163Z,20.9
2017-11-14T00:54:05.494Z,21
2017-11-14T00:56:05.264Z,20.9
2017-11-14T00:58:07.577Z,21
2017-11-14T01:00:05.402Z,20.9
2017-11-14T01:02:05.207Z,20.9
2017-11-14T01:04:05.027Z,21
2017-11-14T01:06:04.814Z,20.9
2017-11-14T01:08:08.111Z,20.9
2017-11-14T01:10:04.896Z,20.9
2017-11-14T01:12:04.633Z,20.9
2017-11-14T01:14:05.325Z,20.9
2017-11-14T01:16:10.410Z,20.9
2017-11-14T01:18:05.441Z,20.9
2017-11-14T01:20:07.652Z,20.9
2017-11-14T01:22:05.378Z,20.9
2017-11-14T01:24:04.660Z,20.9
2017-11-14T01:26:05.389Z,20.9
2017-11-14T01:28:05.121Z,20.9
2017-11-14T01:30:04.924Z,20.9
2017-11-14T01:32:05.199Z,20.9
2017-11-14T01:34:04.970Z,20.9
2017-11-14T01:36:09.877Z,20.9
2017-11-14T01:38:05.576Z,20.9
2017-11-14T01:40:05.338Z,20.9
2017-11-14T01:42:10.195Z,20.9
2017-11-14T01:44:04.917Z,20.9
2017-11-14T01:46:04.659Z,20.9
2017-11-14T01:48:05.470Z,20.9
2017-11-14T01:50:05.301Z,20.9
2017-11-14T01:52:05.051Z,20.9
2017-11-14T01:54:04.914Z,20.8
2017-11-14T01:56:04.753Z,20.9
2017-11-14T01:58:05.434Z,20.8
2017-11-14T02:00:07.757Z,20.8
2017-11-14T02:02:05.452Z,20.9
2017-11-14T02:04:05.178Z,20.9
2017-11-14T02:06:04.950Z,20.9
2017-11-14T02:08:05.194Z,20.9
2017-11-14T02:10:04.928Z,20.8
2017-11-14T02:12:04.707Z,20.9
2017-11-14T02:14:05.581Z,20.8
2017-11-14T02:16:05.291Z,20.9
2017-11-14T02:18:05.323Z,20.8
2017-11-14T02:20:10.236Z,20.8
2017-11-14T02:22:05.564Z,20.9
2017-11-14T02:24:07.394Z,20.8
2017-11-14T02:26:04.725Z,20.8
2017-11-14T02:28:05.464Z,20.8
2017-11-14T02:30:05.291Z,20.8
2017-11-14T02:32:04.991Z,20.8
2017-11-14T02:34:04.723Z,20.8
2017-11-14T02:36:05.486Z,20.8
2017-11-14T02:38:05.208Z,20.8
2017-11-14T02:40:04.964Z,20.8
2017-11-14T02:42:04.670Z,20.8
2017-11-14T02:44:04.956Z,20.8
2017-11-14T02:46:04.711Z,20.8
2017-11-14T02:48:05.500Z,20.8
2017-11-14T02:50:05.248Z,20.8
2017-11-14T02:52:05.057Z,20.8
2017-11-14T02:54:04.820Z,20.8
2017-11-14T02:56:04.720Z,20.8
2017-11-14T02:58:05.033Z,20.8
2017-11-14T03:00:04.764Z,20.8
2017-11-14T03:02:05.470Z,20.8
2017-11-14T03:04:04.771Z,20.8
2017-11-14T03:06:05.531Z,20.8
2017-11-14T03:08:05.367Z,20.8
2017-11-14T03:10:05.115Z,20.8
2017-11-14T03:12:04.895Z,20.8
2017-11-14T03:14:04.687Z,20.8
2017-11-14T03:16:05.417Z,20.8
2017-11-14T03:18:10.583Z,20.8
2017-11-14T03:20:04.839Z,20.8
2017-11-14T03:22:04.674Z,20.8
2017-11-14T03:24:05.428Z,20.7
2017-11-14T03:26:05.190Z,20.7
2017-11-14T03:28:05.493Z,20.7
2017-11-14T03:30:05.229Z,20.8
2017-11-14T03:32:05.017Z,20.8
2017-11-14T03:34:07.285Z,20.8
2017-11-14T03:36:05.041Z,20.8
2017-11-14T03:38:04.749Z,20.8
2017-11-14T03:40:05.036Z,20.8
2017-11-14T03:42:07.871Z,20.8
2017-11-14T03:44:04.599Z,20.8
2017-11-14T03:46:07.859Z,20.8
2017-11-14T03:48:04.716Z,20.7
2017-11-14T03:50:05.520Z,20.8
2017-11-14T03:52:04.842Z,20.8
2017-11-14T03:54:08.112Z,20.8
2017-11-14T03:56:05.434Z,20.8
2017-11-14T03:58:07.713Z,20.8
2017-11-14T04:00:12.625Z,20.7
2017-11-14T04:02:05.333Z,20.7
2017-11-14T04:04:05.554Z,20.8
2017-11-14T04:06:05.423Z,20.8
2017-11-14T04:08:05.167Z,20.7
2017-11-14T04:10:04.937Z,20.7
2017-11-14T04:12:04.706Z,20.7
2017-11-14T04:14:10.587Z,20.7
2017-11-14T04:16:05.370Z,20.7
2017-11-14T04:18:05.302Z,20.7
2017-11-14T04:20:08.105Z,20.8
2017-11-14T04:22:04.845Z,20.8
2017-11-14T04:24:08.145Z,20.8
2017-11-14T04:26:04.983Z,20.7
2017-11-14T04:28:04.914Z,20.8
2017-11-14T04:30:04.721Z,20.7
2017-11-14T04:32:05.480Z,20.7
2017-11-14T04:34:05.180Z,20.7
2017-11-14T04:36:04.983Z,20.7
2017-11-14T04:38:07.241Z,20.7
2017-11-14T04:40:05.525Z,20.7
2017-11-14T04:42:07.308Z,20.7
2017-11-14T04:44:12.633Z,20.7
2017-11-14T04:46:05.386Z,20.7
2017-11-14T04:48:05.137Z,20.8
2017-11-14T04:50:09.925Z,20.8
2017-11-14T04:52:04.633Z,20.8
2017-11-14T04:54:05.358Z,20.8
2017-11-14T04:56:05.081Z,20.7
2017-11-14T04:58:04.831Z,20.8
2017-11-14T05:00:13.201Z,20.8
2017-11-14T05:02:05.122Z,20.8
2017-11-14T05:04:07.340Z,20.8
2017-11-14T05:06:05.241Z,20.8
2017-11-14T05:08:07.498Z,20.8
2017-11-14T05:10:05.221Z,20.8
2017-11-14T05:12:05.085Z,20.8
2017-11-14T05:14:04.849Z,20.8
2017-11-14T05:16:08.107Z,20.8
2017-11-14T05:18:05.149Z,20.7
2017-11-14T05:20:09.919Z,20.7
2017-11-14T05:22:05.220Z,20.7
2017-11-14T05:24:04.936Z,20.7
2017-11-14T05:26:05.203Z,20.7
2017-11-14T05:28:13.117Z,20.6
2017-11-14T05:30:04.928Z,20.7
2017-11-14T05:32:04.644Z,20.6
2017-11-14T05:34:05.330Z,20.6
2017-11-14T05:36:05.168Z,20.6
2017-11-14T05:38:07.433Z,20.6
2017-11-14T05:40:07.719Z,20.6
2017-11-14T05:42:05.461Z,20.6
2017-11-14T05:44:05.169Z,20.6
2017-11-14T05:46:07.516Z,20.5
2017-11-14T05:48:12.867Z,20.5
2017-11-14T05:50:05.563Z,20.5
2017-11-14T05:52:10.902Z,20.5
2017-11-14T05:54:05.100Z,20.5
2017-11-14T05:56:05.337Z,20.5
2017-11-14T05:58:05.106Z,20.5
2017-11-14T06:00:04.810Z,20.5
2017-11-14T06:02:05.544Z,20.5
2017-11-14T06:04:05.311Z,20.5
2017-11-14T06:06:05.043Z,20.5
2017-11-14T06:08:05.125Z,20.5
2017-11-14T06:10:05.240Z,20.5
2017-11-14T06:12:04.955Z,20.5
2017-11-14T06:14:04.704Z,20.5
2017-11-14T06:16:07.989Z,20.5
2017-11-14T06:18:04.959Z,20.5
2017-11-14T06:20:07.239Z,20.5
2017-11-14T06:22:04.952Z,20.5
2017-11-14T06:24:04.652Z,20.5
2017-11-14T06:26:04.895Z,20.5
2017-11-14T06:28:05.631Z,20.5
2017-11-14T06:30:05.376Z,20.5
2017-11-14T06:32:12.283Z,20.5
2017-11-14T06:34:05.020Z,20.5
2017-11-14T06:36:04.757Z,20.5
2017-11-14T06:38:05.411Z,20.5
2017-11-14T06:40:10.369Z,20.5
2017-11-14T06:42:07.651Z,20.5
2017-11-14T06:44:05.417Z,20.5
2017-11-14T06:46:07.668Z,20.5
2017-11-14T06:48:05.445Z,20.5
2017-11-14T06:50:07.638Z,20.5
2017-11-14T06:52:04.891Z,20.5
2017-11-14T06:54:05.698Z,20.5
2017-11-14T06:56:05.476Z,20.6
2017-11-14T06:58:04.776Z,20.6
2017-11-14T07:00:05.519Z,20.6
2017-11-14T07:02:05.224Z,20.7
2017-11-14T07:04:05.031Z,20.7
2017-11-14T07:06:04.851Z,20.6
2017-11-14T07:08:05.785Z,20.6
2017-11-14T07:10:05.514Z,20.6
2017-11-14T07:12:05.311Z,20.6
2017-11-14T07:14:05.020Z,20.7
2017-11-14T07:16:04.807Z,20.7
2017-11-14T07:18:05.911Z,20.6
2017-11-14T07:20:10.380Z,20.6
2017-11-14T07:22:05.183Z,20.6
2017-11-14T07:24:04.941Z,20.6
2017-11-14T07:26:04.674Z,20.6
2017-11-14T07:28:15.470Z,20.6
2017-11-14T07:30:07.261Z,20.5
2017-11-14T07:32:05.011Z,20.6
2017-11-14T07:34:04.769Z,20.5
2017-11-14T07:36:05.533Z,20.6
2017-11-14T07:38:05.244Z,20.6
2017-11-14T07:40:05.101Z,20.7
2017-11-14T07:42:07.403Z,20.6
2017-11-14T07:44:05.153Z,20.7
2017-11-14T07:46:04.843Z,20.7
2017-11-14T07:48:08.177Z,20.7
2017-11-14T07:50:04.868Z,20.7
2017-11-14T07:52:05.582Z,20.8
2017-11-14T07:54:05.395Z,20.8
2017-11-14T07:56:05.118Z,20.8
2017-11-14T07:58:05.421Z,20.9
2017-11-14T08:00:04.739Z,20.9
2017-11-14T08:02:05.437Z,20.9
2017-11-14T08:04:07.732Z,20.8
2017-11-14T08:06:05.556Z,20.8
2017-11-14T08:08:05.274Z,20.9
2017-11-14T08:10:04.996Z,20.9
2017-11-14T08:12:04.721Z,20.8
2017-11-14T08:14:05.065Z,20.8
2017-11-14T08:16:04.921Z,20.9
2017-11-14T08:18:20.106Z,20.8
2017-11-14T08:20:04.838Z,20.8
2017-11-14T08:22:08.218Z,20.9
2017-11-14T08:24:05.575Z,20.9
2017-11-14T08:26:05.341Z,20.8
2017-11-14T08:28:05.126Z,20.9
2017-11-14T08:30:07.628Z,20.9
2017-11-14T08:32:05.332Z,20.9
2017-11-14T08:34:05.059Z,20.9
2017-11-14T08:36:05.399Z,20.9
2017-11-14T08:38:05.171Z,20.9
2017-11-14T08:40:04.957Z,20.9
2017-11-14T08:42:04.708Z,20.9
2017-11-14T08:44:05.491Z,20.9
2017-11-14T08:46:05.394Z,20.9
2017-11-14T08:48:04.973Z,20.9
2017-11-14T08:50:05.279Z,21
2017-11-14T08:52:05.026Z,21
2017-11-14T08:54:07.356Z,21
2017-11-14T08:56:05.080Z,21
2017-11-14T08:58:07.384Z,20.9
2017-11-14T09:00:07.324Z,20.9
2017-11-14T09:02:05.080Z,21
2017-11-14T09:04:04.769Z,20.9
2017-11-14T09:06:05.548Z,21
2017-11-14T09:08:10.435Z,20.9
2017-11-14T09:10:05.672Z,20.9
2017-11-14T09:12:05.596Z,20.9
2017-11-14T09:14:10.406Z,20.9
2017-11-14T09:16:05.157Z,20.9
2017-11-14T09:18:05.094Z,20.9
2017-11-14T09:20:04.859Z,20.9
2017-11-14T09:22:05.142Z,20.9
2017-11-14T09:24:04.852Z,20.9
2017-11-14T09:26:05.600Z,20.9
2017-11-14T09:28:05.345Z,20.9
2017-11-14T09:30:05.297Z,20.9
2017-11-14T09:32:05.045Z,20.9
2017-11-14T09:34:04.836Z,20.9
2017-11-14T09:36:05.621Z,20.9
2017-11-14T09:38:10.386Z,20.9
2017-11-14T09:40:05.158Z,20.9
2017-11-14T09:42:04.962Z,20.9
2017-11-14T09:44:04.672Z,20.9
2017-11-14T09:46:04.943Z,20.9
2017-11-14T09:48:04.667Z,20.9
2017-11-14T09:50:13.037Z,20.9
2017-11-14T09:52:04.783Z,20.9
2017-11-14T09:54:05.536Z,20.9
2017-11-14T09:56:05.277Z,20.9
2017-11-14T09:58:05.029Z,20.9
2017-11-14T10:00:04.765Z,20.9
2017-11-14T10:02:05.047Z,20.9
2017-11-14T10:04:04.775Z,20.9
2017-11-14T10:06:05.084Z,20.9
2017-11-14T10:08:07.879Z,20.9
2017-11-14T10:10:07.225Z,20.9
2017-11-14T10:12:04.998Z,20.9
2017-11-14T10:14:04.762Z,20.9
2017-11-14T10:16:07.592Z,20.9
2017-11-14T10:18:07.918Z,20.9
2017-11-14T10:20:04.812Z,20.9
2017-11-14T10:22:04.662Z,20.9
2017-11-14T10:24:05.383Z,20.9
2017-11-14T10:26:05.121Z,20.9
2017-11-14T10:28:04.889Z,21
2017-11-14T10:30:07.151Z,20.9
2017-11-14T10:32:04.955Z,20.9
2017-11-14T10:34:04.699Z,20.9
2017-11-14T10:36:05.484Z,20.9
2017-11-14T10:38:04.814Z,20.9
2017-11-14T10:40:05.601Z,21
2017-11-14T10:42:12.581Z,20.9
2017-11-14T10:44:05.336Z,20.9
2017-11-14T10:46:05.057Z,21
2017-11-14T10:48:04.972Z,21
2017-11-14T10:50:05.205Z,20.9
2017-11-14T10:52:04.960Z,21
2017-11-14T10:54:05.213Z,20.9
2017-11-14T10:56:04.977Z,20.9
2017-11-14T10:58:04.693Z,20.9
2017-11-14T11:00:05.609Z,20.9
2017-11-14T11:02:07.369Z,20.9
2017-11-14T11:04:10.173Z,20.9
2017-11-14T11:06:04.961Z,20.9
2017-11-14T11:08:04.730Z,20.9
2017-11-14T11:10:04.957Z,21
2017-11-14T11:12:05.229Z,21
2017-11-14T11:14:10.017Z,20.9
2017-11-14T11:16:04.737Z,20.9
2017-11-14T11:18:04.738Z,20.9
2017-11-14T11:20:05.495Z,20.9
2017-11-14T11:22:05.230Z,20.9
2017-11-14T11:24:04.979Z,21
2017-11-14T11:26:05.218Z,20.9
2017-11-14T11:28:05.021Z,20.9
2017-11-14T11:30:12.386Z,20.9
2017-11-14T11:32:05.112Z,20.9
2017-11-14T11:34:04.856Z,20.9
2017-11-14T11:36:04.851Z,20.9
2017-11-14T11:38:05.612Z,20.9
2017-11-14T11:40:05.369Z,20.9
2017-11-14T11:42:13.214Z,20.9
2017-11-14T11:44:04.927Z,20.9
2017-11-14T11:46:04.646Z,20.9
2017-11-14T11:48:04.959Z,20.9
2017-11-14T11:50:04.692Z,20.9
2017-11-14T11:52:07.967Z,21
2017-11-14T11:54:07.213Z,21
2017-11-14T11:56:05.055Z,20.9
2017-11-14T11:58:05.281Z,21
2017-11-14T12:00:05.022Z,20.9
2017-11-14T12:02:04.755Z,20.9
2017-11-14T12:04:08.000Z,21
2017-11-14T12:06:09.812Z,20.9
2017-11-14T12:08:05.035Z,20.9
2017-11-14T12:10:04.745Z,21
2017-11-14T12:12:05.127Z,20.9
2017-11-14T12:14:08.405Z,20.9
2017-11-14T12:16:07.854Z,21
2017-11-14T12:18:04.829Z,20.9
2017-11-14T12:20:10.146Z,20.9
2017-11-14T12:22:05.445Z,20.9
2017-11-14T12:24:05.233Z,21
2017-11-14T12:26:05.001Z,20.9
2017-11-14T12:28:04.728Z,20.9
2017-11-14T12:30:05.587Z,21
2017-11-14T12:32:05.345Z,20.9
2017-11-14T12:34:05.123Z,21
2017-11-14T12:36:04.857Z,20.9
2017-11-14T12:38:08.109Z,21
2017-11-14T12:40:14.970Z,20.9
2017-11-14T12:42:09.934Z,20.9
2017-11-14T12:44:04.719Z,20.9
2017-11-14T12:46:05.415Z,20.9
2017-11-14T12:48:10.239Z,21
2017-11-14T12:50:04.971Z,20.9
2017-11-14T12:52:04.712Z,21
2017-11-14T12:54:04.739Z,20.9
2017-11-14T12:56:08.041Z,21
2017-11-14T12:58:04.760Z,20.9
2017-11-14T13:00:10.571Z,20.9
2017-11-14T13:02:05.355Z,21
2017-11-14T13:04:05.119Z,21
2017-11-14T13:06:07.422Z,21.1
2017-11-14T13:08:04.714Z,21
2017-11-14T13:10:05.444Z,21
2017-11-14T13:12:10.417Z,21
2017-11-14T13:14:05.141Z,21
2017-11-14T13:16:04.920Z,21
2017-11-14T13:18:07.414Z,21
2017-11-14T13:20:04.654Z,21
2017-11-14T13:22:05.382Z,21
2017-11-14T13:24:04.755Z,20.9
2017-11-14T13:26:05.496Z,20.9
2017-11-14T13:28:04.761Z,20.9
2017-11-14T13:30:05.469Z,20.9
2017-11-14T13:32:07.339Z,20.9
2017-11-14T13:34:05.585Z,20.9
2017-11-14T13:36:05.491Z,20.9
2017-11-14T13:38:05.241Z,20.9
2017-11-14T13:40:04.964Z,20.8
2017-11-14T13:42:05.419Z,20.8
2017-11-14T13:44:05.219Z,20.8
2017-11-14T13:46:04.919Z,20.8
2017-11-14T13:48:04.903Z,20.8
2017-11-14T13:50:09.715Z,20.8
2017-11-14T13:52:07.970Z,20.8
2017-11-14T13:54:05.515Z,20.8
2017-11-14T13:56:05.822Z,20.7
2017-11-14T13:58:05.601Z,20.8
2017-11-14T14:00:05.343Z,20.8
2017-11-14T14:02:05.126Z,20.8
2017-11-14T14:04:07.554Z,20.7
2017-11-14T14:06:07.913Z,20.7
2017-11-14T14:08:09.732Z,20.7
2017-11-14T14:10:05.548Z,20.7
2017-11-14T14:12:05.386Z,20.8
2017-11-14T14:14:10.124Z,20.7
2017-11-14T14:16:04.871Z,20.7
2017-11-14T14:18:04.858Z,20.7
2017-11-14T14:20:05.578Z,20.7
2017-11-14T14:22:08.926Z,20.7
2017-11-14T14:24:04.709Z,20.7
2017-11-14T14:26:05.399Z,20.7
2017-11-14T14:28:05.116Z,20.7
2017-11-14T14:30:09.958Z,20.7
2017-11-14T14:32:04.667Z,20.6
2017-11-14T14:34:05.346Z,20.7
2017-11-14T14:36:05.217Z,20.6
2017-11-14T14:38:05.442Z,20.6
2017-11-14T14:40:05.194Z,20.6
2017-11-14T14:42:04.907Z,20.6
2017-11-14T14:44:05.166Z,20.6
2017-11-14T14:46:04.901Z,20.6
2017-11-14T14:48:05.181Z,20.6
2017-11-14T14:50:04.880Z,20.6
2017-11-14T14:52:04.767Z,20.5
2017-11-14T14:54:05.577Z,20.5
2017-11-14T14:56:04.820Z,20.5
2017-11-14T14:58:04.947Z,20.5
2017-11-14T15:00:04.879Z,20.5
2017-11-14T15:02:05.021Z,20.5
2017-11-14T15:04:07.340Z,20.5
2017-11-14T15:06:10.573Z,20.5
2017-11-14T15:08:05.410Z,20.5
2017-11-14T15:10:05.384Z,20.5
2017-11-14T15:12:05.123Z,20.5
2017-11-14T15:14:07.554Z,20.5
2017-11-14T15:16:05.300Z,20.5
2017-11-14T15:18:05.268Z,20.5
2017-11-14T15:20:05.053Z,20.5
2017-11-14T15:22:07.364Z,20.5
2017-11-14T15:24:05.159Z,20.5
2017-11-14T15:26:05.061Z,20.5
2017-11-14T15:28:04.806Z,20.5
2017-11-14T15:30:08.098Z,20.5
2017-11-14T15:32:07.558Z,20.5
2017-11-14T15:34:07.848Z,20.5
2017-11-14T15:36:05.688Z,20.5
2017-11-14T15:38:10.645Z,20.5
2017-11-14T15:40:04.933Z,20.5
2017-11-14T15:42:04.827Z,20.5
2017-11-14T15:44:05.533Z,20.4
2017-11-14T15:46:05.305Z,20.4
2017-11-14T15:48:05.092Z,20.4
2017-11-14T15:50:07.355Z,20.4
2017-11-14T15:52:05.108Z,20.4
2017-11-14T15:54:04.957Z,20.4
2017-11-14T15:56:04.716Z,20.5
2017-11-14T15:58:05.438Z,20.5
2017-11-14T16:00:05.162Z,20.5
2017-11-14T16:02:04.932Z,20.5
2017-11-14T16:04:05.203Z,20.4
2017-11-14T16:06:05.015Z,20.5
2017-11-14T16:08:04.804Z,20.5
2017-11-14T16:10:05.159Z,20.5
2017-11-14T16:12:04.995Z,20.4
2017-11-14T16:14:04.734Z,20.4
2017-11-14T16:16:05.472Z,20.4
2017-11-14T16:18:05.442Z,20.4
2017-11-14T16:20:05.242Z,20.4
2017-11-14T16:22:08.108Z,20.4
2017-11-14T16:24:05.352Z,20.4
2017-11-14T16:26:05.072Z,20.4
2017-11-14T16:28:04.964Z,20.4
2017-11-14T16:30:04.805Z,20.4
2017-11-14T16:32:05.507Z,20.4
2017-11-14T16:34:07.755Z,20.4
2017-11-14T16:36:07.661Z,20.4
2017-11-14T16:38:10.532Z,20.4
2017-11-14T16:40:05.283Z,20.4
2017-11-14T16:42:05.273Z,20.4
2017-11-14T16:44:05.043Z,20.4
2017-11-14T16:46:05.353Z,20.4
2017-11-14T16:48:05.146Z,20.4
2017-11-14T16:50:07.394Z,20.4
2017-11-14T16:52:05.120Z,20.4
2017-11-14T16:54:04.899Z,20.4
2017-11-14T16:56:05.607Z,20.4
2017-11-14T16:58:05.339Z,20.4
2017-11-14T17:00:04.678Z,20.4
2017-11-14T17:02:05.420Z,20.4
2017-11-14T17:04:05.172Z,20.5
2017-11-14T17:06:04.909Z,20.6
2017-11-14T17:08:05.667Z,20.6
2017-11-14T17:10:05.406Z,20.6
2017-11-14T17:12:05.226Z,20.6
2017-11-14T17:14:04.958Z,20.6
2017-11-14T17:16:04.742Z,20.6
2017-11-14T17:18:04.743Z,20.6
2017-11-14T17:20:05.493Z,20.7
2017-11-14T17:22:05.241Z,20.6
2017-11-14T17:24:04.972Z,20.6
2017-11-14T17:26:04.742Z,20.7
2017-11-14T17:28:10.524Z,20.7
2017-11-14T17:30:05.256Z,20.6
2017-11-14T17:32:15.089Z,20.6
2017-11-14T17:34:05.506Z,20.6
2017-11-14T17:36:05.301Z,20.6
2017-11-14T17:38:10.152Z,20.6
2017-11-14T17:40:04.893Z,20.6
2017-11-14T17:42:05.603Z,20.6
2017-11-14T17:44:05.362Z,20.6
2017-11-14T17:46:05.144Z,20.6
2017-11-14T17:48:05.072Z,20.6
2017-11-14T17:50:04.828Z,20.6
2017-11-14T17:52:04.784Z,20.6
2017-11-14T17:54:11.510Z,20.6
2017-11-14T17:56:05.517Z,20.6
2017-11-14T17:58:05.201Z,20.6
2017-11-14T18:00:04.928Z,20.6
2017-11-14T18:02:04.679Z,20.6
2017-11-14T18:04:05.494Z,20.6
2017-11-14T18:06:04.767Z,20.6
2017-11-14T18:08:10.526Z,20.6
2017-11-14T18:10:05.263Z,20.6
2017-11-14T18:12:08.308Z,20.6
2017-11-14T18:14:05.362Z,20.6
2017-11-14T18:16:05.391Z,20.6
2017-11-14T18:18:05.353Z,20.6
2017-11-14T18:20:05.103Z,20.6
2017-11-14T18:22:05.688Z,20.6
2017-11-14T18:24:07.356Z,20.6
2017-11-14T18:26:05.538Z,20.6
2017-11-14T18:28:05.258Z,20.6
2017-11-14T18:30:05.548Z,20.6
2017-11-14T18:32:05.641Z,20.6
2017-11-14T18:34:05.895Z,20.6
2017-11-14T18:36:07.395Z,20.6
2017-11-14T18:38:07.910Z,20.6
2017-11-14T18:40:04.933Z,20.6
2017-11-14T18:42:07.178Z,20.6
2017-11-14T18:44:07.450Z,20.6
2017-11-14T18:46:09.656Z,20.6
2017-11-14T18:48:05.100Z,20.6
2017-11-14T18:50:04.889Z,20.6
2017-11-14T18:52:07.649Z,20.6
2017-11-14T18:54:04.865Z,20.6
2017-11-14T18:56:07.420Z,20.6
2017-11-14T18:58:07.304Z,20.6
2017-11-14T19:00:10.470Z,20.6
2017-11-14T19:02:06.499Z,20.6
2017-11-14T19:04:05.180Z,20.6
2017-11-14T19:06:08.375Z,20.6
2017-11-14T19:08:09.865Z,20.6
2017-11-14T19:10:04.697Z,20.6
2017-11-14T19:12:04.882Z,20.6
2017-11-14T19:14:07.608Z,20.6
2017-11-14T19:16:09.971Z,20.6
2017-11-14T19:18:11.137Z,20.6
2017-11-14T19:20:04.660Z,20.6
2017-11-14T19:22:04.901Z,20.6
2017-11-14T19:24:07.610Z,20.6
2017-11-14T19:26:07.910Z,20.6
2017-11-14T19:28:04.676Z,20.6
2017-11-14T19:30:04.986Z,20.6
2017-11-14T19:32:05.408Z,20.6
2017-11-14T19:34:05.157Z,20.6
2017-11-14T19:36:06.029Z,20.6
2017-11-14T19:38:07.446Z,20.6
2017-11-14T19:40:04.818Z,20.6
2017-11-14T19:42:04.704Z,20.6
2017-11-14T19:44:06.211Z,20.6
2017-11-14T19:46:04.924Z,20.6
2017-11-14T19:48:04.971Z,20.6
2017-11-14T19:50:07.339Z,20.6
2017-11-14T19:52:05.540Z,20.6
2017-11-14T19:54:11.177Z,20.6
2017-11-14T19:56:10.748Z,20.6
2017-11-14T19:58:08.041Z,20.6
2017-11-14T20:00:05.734Z,20.6
2017-11-14T20:02:08.259Z,20.6
2017-11-14T20:04:05.027Z,20.5
2017-11-14T20:06:05.453Z,20.6
2017-11-14T20:08:08.359Z,20.5
2017-11-14T20:10:07.260Z,20.6
2017-11-14T20:12:08.022Z,20.5
2017-11-14T20:14:10.128Z,20.5
2017-11-14T20:16:06.354Z,20.5
2017-11-14T20:18:13.961Z,20.5
2017-11-14T20:20:10.502Z,20.5
2017-11-14T20:22:05.354Z,20.5
2017-11-14T20:24:05.091Z,20.5
2017-11-14T20:26:05.202Z,20.5
2017-11-14T20:28:06.111Z,20.5
2017-11-14T20:30:05.228Z,20.5
2017-11-14T20:32:10.018Z,20.5
2017-11-14T20:34:04.731Z,20.5
2017-11-14T20:36:05.069Z,20.5
2017-11-14T20:38:05.518Z,20.5
2017-11-14T20:40:05.252Z,20.5
2017-11-14T20:42:05.038Z,20.5
2017-11-14T20:44:09.930Z,20.5
2017-11-14T20:46:07.736Z,20.5
2017-11-14T20:48:10.522Z,20.5
2017-11-14T20:50:07.801Z,20.5
2017-11-14T20:52:05.740Z,20.5
2017-11-14T20:54:04.993Z,20.5
2017-11-14T20:56:05.294Z,20.5
2017-11-14T20:58:05.030Z,20.5
2017-11-14T21:00:04.792Z,20.5
2017-11-14T21:02:08.088Z,20.5
2017-11-14T21:04:07.901Z,20.5
2017-11-14T21:06:04.755Z,20.5
2017-11-14T21:08:08.034Z,20.5
2017-11-14T21:10:04.788Z,20.5
2017-11-14T21:12:05.619Z,20.5
2017-11-14T21:14:05.758Z,20.5
2017-11-14T21:16:10.640Z,20.5
2017-11-14T21:18:05.670Z,20.5
2017-11-14T21:20:04.709Z,20.5
2017-11-14T21:22:04.622Z,20.5
2017-11-14T21:24:07.988Z,20.5
2017-11-14T21:26:07.270Z,20.5
2017-11-14T21:28:07.523Z,20.5
2017-11-14T21:30:04.799Z,20.5
2017-11-14T21:32:04.709Z,20.5
2017-11-14T21:34:08.008Z,20.5
2017-11-14T21:36:05.457Z,20.5
2017-11-14T21:38:05.188Z,20.5
2017-11-14T21:40:10.223Z,20.5
2017-11-14T21:42:05.096Z,20.5
2017-11-14T21:44:05.383Z,20.5
2017-11-14T21:46:05.135Z,20.5
2017-11-14T21:48:07.503Z,20.5
2017-11-14T21:50:05.236Z,20.5
2017-11-14T21:52:04.961Z,20.5
2017-11-14T21:54:04.722Z,20.4
2017-11-14T21:56:05.465Z,20.5
2017-11-14T21:58:05.160Z,20.4
2017-11-14T22:00:07.978Z,20.5
2017-11-14T22:02:04.741Z,20.5
2017-11-14T22:04:05.482Z,20.5
2017-11-14T22:06:05.280Z,20.4
2017-11-14T22:08:05.029Z,20.4
2017-11-14T22:10:04.793Z,20.4
2017-11-14T22:12:07.529Z,20.4
2017-11-14T22:14:05.061Z,20.4
2017-11-14T22:16:04.808Z,20.4
2017-11-14T22:18:05.639Z,20.4
2017-11-14T22:20:05.440Z,20.4
2017-11-14T22:22:05.207Z,20.4
2017-11-14T22:24:04.982Z,20.4
2017-11-14T22:26:07.478Z,20.4
2017-11-14T22:28:07.260Z,20.4
2017-11-14T22:30:08.088Z,20.3
2017-11-14T22:32:07.366Z,20.4
2017-11-14T22:34:05.045Z,20.3
2017-11-14T22:36:07.402Z,20.4
2017-11-14T22:38:05.219Z,20.3
2017-11-14T22:40:12.540Z,20.3
2017-11-14T22:42:05.265Z,20.4
2017-11-14T22:44:07.496Z,20.3
2017-11-14T22:46:10.390Z,20.3
2017-11-14T22:48:05.276Z,20.3
2017-11-14T22:50:05.720Z,20.4
2017-11-14T22:52:05.086Z,20.4
2017-11-14T22:54:09.134Z,20.4
2017-11-14T22:56:05.482Z,20.3
2017-11-14T22:58:05.202Z,20.3
2017-11-14T23:00:05.160Z,20.3
2017-11-14T23:02:05.699Z,20.3
2017-11-14T23:04:12.598Z,20.3
2017-11-14T23:06:05.297Z,20.3
2017-11-14T23:08:05.200Z,20.3
2017-11-14T23:10:05.392Z,20.3
2017-11-14T23:12:05.773Z,20.3
2017-11-14T23:14:07.553Z,20.3
2017-11-14T23:16:04.914Z,20.3
2017-11-14T23:18:05.440Z,20.3
2017-11-14T23:20:07.323Z,20.3
2017-11-14T23:22:05.266Z,20.3
2017-11-14T23:24:07.617Z,20.3
2017-11-14T23:26:10.285Z,20.3
2017-11-14T23:28:05.481Z,20.3
2017-11-14T23:30:07.556Z,20.3
2017-11-14T23:32:04.825Z,20.3
2017-11-14T23:34:05.209Z,20.3
2017-11-14T23:36:05.726Z,20.3
2017-11-14T23:38:08.073Z,20.2
2017-11-14T23:40:05.473Z,20.3
2017-11-14T23:42:05.288Z,20.3
2017-11-14T23:44:05.029Z,20.3
2017-11-14T23:46:04.748Z,20.2
2017-11-14T23:48:05.525Z,20.2
2017-11-14T23:50:05.234Z,20.2
2017-11-14T23:52:04.957Z,20.2
2017-11-14T23:54:04.830Z,20.2
2017-11-14T23:56:08.131Z,20.2
2017-11-14T23:58:05.061Z,20.2
